createdAt,value
2018-11-10T09:57:57.831Z,69.57
2018-11-10T10:00:27.692Z,69.09
2018-11-10T10:02:56.693Z,68.41
2018-11-10T10:05:25.409Z,69.02
2018-11-10T10:07:54.257Z,68.90
2018-11-10T10:10:22.928Z,69.33
2018-11-10T10:12:51.609Z,68.99
2018-11-10T10:15:20.486Z,68.84
2018-11-10T10:17:49.416Z,69.17
2018-11-10T10:20:19.307Z,68.89
2018-11-10T10:22:48.810Z,69.04
2018-11-10T10:25:18.267Z,69.39
2018-11-10T10:27:47.878Z,68.58
2018-11-10T10:30:19.213Z,69.00
2018-11-10T10:32:48.987Z,69.32
2018-11-10T10:35:17.933Z,69.06
2018-11-10T10:37:47.939Z,68.98
2018-11-10T10:40:16.994Z,69.17
2018-11-10T10:42:46.700Z,69.14
2018-11-10T10:45:20.209Z,69.08
2018-11-10T10:47:49.496Z,69.17
2018-11-10T10:50:19.505Z,69.71
2018-11-10T10:52:48.272Z,69.98
2018-11-10T10:55:18.175Z,70.08
2018-11-10T10:57:47.778Z,69.80
2018-11-10T11:00:22.041Z,69.50
2018-11-10T11:02:58.759Z,69.90
2018-11-10T11:05:37.189Z,69.84
2018-11-10T11:08:13.988Z,70.47
2018-11-10T11:10:43.096Z,70.40
2018-11-10T11:13:11.964Z,70.67
2018-11-10T11:15:40.562Z,70.46
2018-11-10T11:18:09.330Z,70.47
2018-11-10T11:20:37.988Z,70.80
2018-11-10T11:23:07.049Z,71.30
2018-11-10T11:25:35.869Z,70.54
2018-11-10T11:28:04.674Z,70.70
2018-11-10T11:30:33.654Z,70.45
2018-11-10T11:33:02.781Z,70.23
2018-11-10T11:35:32.412Z,69.89
2018-11-10T11:38:01.137Z,69.68
2018-11-10T11:40:29.819Z,69.54
2018-11-10T11:42:58.530Z,69.67
2018-11-10T11:45:27.275Z,69.19
2018-11-10T11:47:56.165Z,69.36
2018-11-10T11:50:25.052Z,68.30
2018-11-10T11:52:53.670Z,69.08
2018-11-10T11:55:22.421Z,68.01
2018-11-10T11:57:51.077Z,68.33
2018-11-10T12:00:20.787Z,68.14
2018-11-10T12:02:49.557Z,68.48
2018-11-10T12:05:18.572Z,68.13
2018-11-10T12:07:47.553Z,67.99
2018-11-10T12:10:17.176Z,67.92
2018-11-10T12:12:45.919Z,67.64
2018-11-10T12:15:15.995Z,67.68
2018-11-10T12:17:44.631Z,67.67
2018-11-10T12:20:14.934Z,67.59
2018-11-10T12:22:49.758Z,67.47
2018-11-10T12:25:18.376Z,67.65
2018-11-10T12:27:47.075Z,67.43
2018-11-10T12:30:16.065Z,67.67
2018-11-10T12:32:44.835Z,67.52
2018-11-10T12:35:14.462Z,67.67
2018-11-10T12:37:43.666Z,67.92
2018-11-10T12:40:13.500Z,67.84
2018-11-10T12:42:42.247Z,67.76
2018-11-10T12:45:12.265Z,67.68
2018-11-10T12:47:41.540Z,68.09
2018-11-10T12:50:14.243Z,67.94
2018-11-10T12:52:43.986Z,68.23
2018-11-10T12:55:14.290Z,68.38
2018-11-10T12:57:56.059Z,68.52
2018-11-10T13:00:25.477Z,68.50
2018-11-10T13:02:54.133Z,68.47
2018-11-10T13:05:22.909Z,68.68
2018-11-10T13:07:51.790Z,69.08
2018-11-10T13:10:20.602Z,69.32
2018-11-10T13:12:49.199Z,71.02
2018-11-10T13:15:18.329Z,70.40
2018-11-10T13:17:47.187Z,70.47
2018-11-10T13:20:17.224Z,71.07
2018-11-10T13:22:45.971Z,71.04
2018-11-10T13:25:15.304Z,70.32
2018-11-10T13:27:44.073Z,71.33
2018-11-10T13:30:14.361Z,70.70
2018-11-10T13:32:43.251Z,71.41
2018-11-10T13:35:12.728Z,70.89
2018-11-10T13:37:41.368Z,71.88
2018-11-10T13:40:10.896Z,71.16
2018-11-10T13:42:39.983Z,70.76
2018-11-10T13:45:10.724Z,70.68
2018-11-10T13:47:39.348Z,70.80
2018-11-10T13:50:09.812Z,70.82
2018-11-10T13:52:39.542Z,70.81
2018-11-10T13:55:08.085Z,70.77
2018-11-10T13:57:37.105Z,70.59
2018-11-10T14:00:08.231Z,70.78
2018-11-10T14:02:37.027Z,70.68
2018-11-10T14:05:06.011Z,70.60
2018-11-10T14:07:36.006Z,70.32
2018-11-10T14:10:05.232Z,70.65
2018-11-10T14:12:34.076Z,70.51
2018-11-10T14:15:02.811Z,70.86
2018-11-10T14:17:31.836Z,70.93
2018-11-10T14:20:00.798Z,70.39
2018-11-10T14:22:29.605Z,70.57
2018-11-10T14:24:58.705Z,70.49
2018-11-10T14:27:27.985Z,70.50
2018-11-10T14:29:56.934Z,70.32
2018-11-10T14:32:26.625Z,70.07
2018-11-10T14:34:55.572Z,70.64
2018-11-10T14:37:25.121Z,69.92
2018-11-10T14:39:55.064Z,69.92
2018-11-10T14:42:24.226Z,70.00
2018-11-10T14:44:53.016Z,69.85
2018-11-10T14:47:21.804Z,70.30
2018-11-10T14:49:50.650Z,69.99
2018-11-10T14:52:19.670Z,70.21
2018-11-10T14:54:48.349Z,69.94
2018-11-10T14:57:17.304Z,69.70
2018-11-10T14:59:46.231Z,69.75
2018-11-10T15:02:15.155Z,69.98
2018-11-10T15:04:44.154Z,69.64
2018-11-10T15:07:13.211Z,69.83
2018-11-10T15:09:42.075Z,69.76
2018-11-10T15:12:10.932Z,69.80
2018-11-10T15:14:39.673Z,69.73
2018-11-10T15:17:08.513Z,70.00
2018-11-10T15:19:37.211Z,69.85
2018-11-10T15:22:06.806Z,69.89
2018-11-10T15:24:35.557Z,69.85
2018-11-10T15:27:04.391Z,70.19
2018-11-10T15:29:33.271Z,70.06
2018-11-10T15:32:02.055Z,70.37
2018-11-10T15:34:30.898Z,70.74
2018-11-10T15:36:59.681Z,70.58
2018-11-10T15:39:28.421Z,70.45
2018-11-10T15:41:57.479Z,70.34
2018-11-10T15:44:26.265Z,71.07
2018-11-10T15:46:55.145Z,70.62
2018-11-10T15:49:23.942Z,70.42
2018-11-10T15:51:52.732Z,70.43
2018-11-10T15:54:22.282Z,70.64
2018-11-10T15:56:51.375Z,69.98
2018-11-10T15:59:20.140Z,69.85
2018-11-10T16:01:50.001Z,69.39
2018-11-10T16:04:19.837Z,69.57
2018-11-10T16:06:49.826Z,69.47
2018-11-10T16:09:18.816Z,69.60
2018-11-10T16:11:48.160Z,70.40
2018-11-10T16:14:17.029Z,70.12
2018-11-10T16:16:45.745Z,69.91
2018-11-10T16:19:14.494Z,70.18
2018-11-10T16:21:43.608Z,69.99
2018-11-10T16:24:12.541Z,70.36
2018-11-10T16:26:41.366Z,70.03
2018-11-10T16:29:10.111Z,70.16
2018-11-10T16:31:38.988Z,70.24
2018-11-10T16:34:07.883Z,70.57
2018-11-10T16:36:36.592Z,70.25
2018-11-10T16:39:07.193Z,70.34
2018-11-10T16:41:36.136Z,70.19
2018-11-10T16:44:04.885Z,70.42
2018-11-10T16:46:33.652Z,70.59
2018-11-10T16:49:02.323Z,70.83
2018-11-10T16:51:31.469Z,71.21
2018-11-10T16:54:00.208Z,71.40
2018-11-10T16:56:29.085Z,71.06
2018-11-10T16:58:57.972Z,71.36
2018-11-10T17:01:26.914Z,71.34
2018-11-10T17:03:55.819Z,71.64
2018-11-10T17:06:25.890Z,71.61
2018-11-10T17:08:54.698Z,71.91
2018-11-10T17:11:23.360Z,71.91
2018-11-10T17:13:52.140Z,72.55
2018-11-10T17:16:20.873Z,72.97
2018-11-10T17:18:49.897Z,72.99
2018-11-10T17:21:18.911Z,73.27
2018-11-10T17:23:47.991Z,72.93
2018-11-10T17:26:16.885Z,73.70
2018-11-10T17:28:45.743Z,73.55
2018-11-10T17:31:14.672Z,74.11
2018-11-10T17:33:43.717Z,74.12
2018-11-10T17:36:12.467Z,73.83
2018-11-10T17:38:41.286Z,74.24
2018-11-10T17:41:10.057Z,74.12
2018-11-10T17:43:38.691Z,74.15
2018-11-10T17:46:07.575Z,74.41
2018-11-10T17:48:36.517Z,74.56
2018-11-10T17:51:05.537Z,74.75
2018-11-10T17:53:34.364Z,74.99
2018-11-10T17:56:02.999Z,74.95
2018-11-10T17:58:31.713Z,75.17
2018-11-10T18:01:00.388Z,75.00
2018-11-10T18:03:35.838Z,75.30
2018-11-10T18:06:04.974Z,75.13
2018-11-10T18:08:33.817Z,75.63
2018-11-10T18:11:02.904Z,75.69
2018-11-10T18:13:31.672Z,75.86
2018-11-10T18:16:01.173Z,75.73
2018-11-10T18:18:29.963Z,75.70
2018-11-10T18:20:58.813Z,75.41
2018-11-10T18:23:27.688Z,75.42
2018-11-10T18:25:56.410Z,74.97
2018-11-10T18:28:25.022Z,74.74
2018-11-10T18:30:53.774Z,74.22
2018-11-10T18:33:22.664Z,74.22
2018-11-10T18:35:51.539Z,73.79
2018-11-10T18:38:20.344Z,73.21
2018-11-10T18:40:49.099Z,72.82
2018-11-10T18:43:17.820Z,73.37
2018-11-10T18:45:46.641Z,73.35
2018-11-10T18:48:15.764Z,73.45
2018-11-10T18:50:44.480Z,73.16
2018-11-10T18:53:13.900Z,72.77
2018-11-10T18:55:42.664Z,72.33
2018-11-10T18:58:11.675Z,72.15
2018-11-10T19:00:40.683Z,72.23
2018-11-10T19:03:09.300Z,72.37
2018-11-10T19:05:37.921Z,72.36
2018-11-10T19:08:06.720Z,72.34
2018-11-10T19:10:35.682Z,72.48
2018-11-10T19:13:04.619Z,72.65
2018-11-10T19:15:33.841Z,72.46
2018-11-10T19:18:02.480Z,72.33
2018-11-10T19:20:31.088Z,72.14
2018-11-10T19:22:59.793Z,72.14
2018-11-10T19:25:28.478Z,71.89
2018-11-10T19:27:57.214Z,71.63
2018-11-10T19:30:25.855Z,71.54
2018-11-10T19:32:54.623Z,71.61
2018-11-10T19:35:24.301Z,71.27
2018-11-10T19:37:53.110Z,71.47
2018-11-10T19:40:22.083Z,71.79
2018-11-10T19:42:51.673Z,71.27
2018-11-10T19:45:20.779Z,71.59
2018-11-10T19:47:49.409Z,71.78
2018-11-10T19:50:18.187Z,73.44
2018-11-10T19:52:46.811Z,72.19
2018-11-10T19:55:16.603Z,74.70
2018-11-10T19:57:45.548Z,72.71
2018-11-10T20:00:16.867Z,70.88
2018-11-10T20:02:45.640Z,69.76
2018-11-10T20:05:14.223Z,69.68
2018-11-10T20:07:42.897Z,69.83
2018-11-10T20:10:12.398Z,69.10
2018-11-10T20:12:41.565Z,68.92
2018-11-10T20:15:11.909Z,69.02
2018-11-10T20:17:41.169Z,68.76
2018-11-10T20:20:11.157Z,69.36
2018-11-10T20:22:40.146Z,69.39
2018-11-10T20:25:11.030Z,69.90
2018-11-10T20:27:40.021Z,70.16
2018-11-10T20:30:12.980Z,70.18
2018-11-10T20:32:41.638Z,69.99
2018-11-10T20:35:11.723Z,70.19
2018-11-10T20:37:41.249Z,70.14
2018-11-10T20:40:11.547Z,70.33
2018-11-10T20:42:40.445Z,70.49
2018-11-10T20:45:11.117Z,70.33
2018-11-10T20:47:40.458Z,70.17
2018-11-10T20:50:09.295Z,70.69
2018-11-10T20:52:38.530Z,70.66
2018-11-10T20:55:08.795Z,70.60
2018-11-10T20:57:38.086Z,70.81
2018-11-10T21:00:09.611Z,70.57
2018-11-10T21:02:39.018Z,70.91
2018-11-10T21:05:08.755Z,70.74
2018-11-10T21:07:37.393Z,70.73
2018-11-10T21:10:09.645Z,70.98
2018-11-10T21:12:38.819Z,70.72
2018-11-10T21:15:08.389Z,71.54
2018-11-10T21:17:37.450Z,71.20
2018-11-10T21:20:07.149Z,71.35
2018-11-10T21:22:35.853Z,71.35
2018-11-10T21:25:04.740Z,71.21
2018-11-10T21:27:33.642Z,71.36
2018-11-10T21:30:02.329Z,70.96
2018-11-10T21:32:30.910Z,70.79
2018-11-10T21:34:59.731Z,71.19
2018-11-10T21:37:28.483Z,70.99
2018-11-10T21:39:57.168Z,71.13
2018-11-10T21:42:25.872Z,70.59
2018-11-10T21:44:54.542Z,70.74
2018-11-10T21:47:23.103Z,70.63
2018-11-10T21:49:51.818Z,70.54
2018-11-10T21:52:20.462Z,70.82
2018-11-10T21:54:49.437Z,70.59
2018-11-10T21:57:18.221Z,70.31
2018-11-10T21:59:47.139Z,70.41
2018-11-10T22:02:15.942Z,70.20
2018-11-10T22:04:44.726Z,70.43
2018-11-10T22:07:13.477Z,70.43
2018-11-10T22:09:42.174Z,70.32
2018-11-10T22:12:10.848Z,70.38
2018-11-10T22:14:39.441Z,70.37
2018-11-10T22:17:08.129Z,70.06
2018-11-10T22:19:36.805Z,70.24
2018-11-10T22:22:05.788Z,70.18
2018-11-10T22:24:34.417Z,70.25
2018-11-10T22:27:03.014Z,70.34
2018-11-10T22:29:31.727Z,70.73
2018-11-10T22:32:00.483Z,70.91
2018-11-10T22:34:29.453Z,71.10
2018-11-10T22:36:58.097Z,71.37
2018-11-10T22:39:26.851Z,71.51
2018-11-10T22:41:55.469Z,71.71
2018-11-10T22:44:24.191Z,71.88
2018-11-10T22:46:52.928Z,72.16
2018-11-10T22:49:21.560Z,72.50
2018-11-10T22:51:50.446Z,72.58
2018-11-10T22:54:19.094Z,72.86
2018-11-10T22:56:47.689Z,73.23
2018-11-10T22:59:16.768Z,72.97
2018-11-10T23:01:45.399Z,73.49
2018-11-10T23:04:13.958Z,74.56
2018-11-10T23:06:42.722Z,74.25
2018-11-10T23:09:12.042Z,74.78
2018-11-10T23:11:40.754Z,74.31
2018-11-10T23:14:09.543Z,74.86
2018-11-10T23:16:38.259Z,75.48
2018-11-10T23:19:07.136Z,75.37
2018-11-10T23:21:35.815Z,75.39
2018-11-10T23:24:04.560Z,75.69
2018-11-10T23:26:33.250Z,75.94
2018-11-10T23:29:01.957Z,75.88
2018-11-10T23:31:30.636Z,76.21
2018-11-10T23:33:59.227Z,76.31
2018-11-10T23:36:27.852Z,76.68
2018-11-10T23:38:56.440Z,76.92
2018-11-10T23:41:25.830Z,76.74
2018-11-10T23:43:54.516Z,76.73
2018-11-10T23:46:23.275Z,76.75
2018-11-10T23:48:52.131Z,77.31
2018-11-10T23:51:20.682Z,77.25
2018-11-10T23:53:49.287Z,76.86
2018-11-10T23:56:17.867Z,76.98
2018-11-10T23:58:46.491Z,77.61
